Dolphin, Virginia
Current Conditions -  °F | °C
As of 1:15 AM on Monday 26 Jan 2015 (Local Time) from KLVL Reporting Station
Clear Clear  
Wind Chill: 39°   Ceiling: Unl
Heat Index: 39°   Visibility: 10mi
Dew Point: 35°   Wind: 3mph
Humidity: 86%   Direction: 110°ESE
Pressure: 29.77"   Gusts: NA
Location:  36.85°N, 77.81°W
Report Text: KLVL 260615Z AUTO 11003KT 10SM CLR 04/02 A2977 RMK AO1 T00370015
Loading
Personal Weather Stations






























Interactive Weather Map New forecast layout! Learn more

10-Day Weather Forecast

Advertisements
Track Severe Weather on mobile